sensor_id;sensor_type;location;lat;lon;timestamp;P1;durP1;ratioP1;P2;durP2;ratioP2
4106;SDS011;21906;50.812;7.132;2022-10-30T00:02:07;8.57;;;7.60;;
4106;SDS011;21906;50.812;7.132;2022-10-30T00:04:33;8.93;;;7.90;;
4106;SDS011;21906;50.812;7.132;2022-10-30T00:06:58;10.63;;;6.83;;
4106;SDS011;21906;50.812;7.132;2022-10-30T00:09:24;12.27;;;8.13;;
4106;SDS011;21906;50.812;7.132;2022-10-30T00:11:50;12.97;;;7.40;;
4106;SDS011;21906;50.812;7.132;2022-10-30T00:14:15;9.60;;;7.33;;
4106;SDS011;21906;50.812;7.132;2022-10-30T00:16:42;11.63;;;7.53;;
4106;SDS011;21906;50.812;7.132;2022-10-30T00:19:07;9.13;;;7.80;;
4106;SDS011;21906;50.812;7.132;2022-10-30T00:21:33;11.43;;;7.30;;
4106;SDS011;21906;50.812;7.132;2022-10-30T00:23:59;9.10;;;7.30;;
4106;SDS011;21906;50.812;7.132;2022-10-30T00:26:24;9.33;;;7.30;;
4106;SDS011;21906;50.812;7.132;2022-10-30T00:28:51;12.20;;;8.10;;
4106;SDS011;21906;50.812;7.132;2022-10-30T00:31:17;10.50;;;7.23;;
4106;SDS011;21906;50.812;7.132;2022-10-30T00:33:47;11.50;;;7.43;;
4106;SDS011;21906;50.812;7.132;2022-10-30T00:36:14;12.20;;;7.17;;
4106;SDS011;21906;50.812;7.132;2022-10-30T00:38:40;8.20;;;7.40;;
4106;SDS011;21906;50.812;7.132;2022-10-30T00:41:05;11.97;;;7.20;;
4106;SDS011;21906;50.812;7.132;2022-10-30T00:43:33;10.30;;;7.50;;
4106;SDS011;21906;50.812;7.132;2022-10-30T00:48:51;10.20;;;7.53;;
4106;SDS011;21906;50.812;7.132;2022-10-30T00:51:21;12.53;;;8.13;;
4106;SDS011;21906;50.812;7.132;2022-10-30T00:53:48;10.60;;;8.00;;
4106;SDS011;21906;50.812;7.132;2022-10-30T00:56:16;14.57;;;7.50;;
4106;SDS011;21906;50.812;7.132;2022-10-30T00:58:46;9.30;;;7.27;;
4106;SDS011;21906;50.812;7.132;2022-10-30T01:01:18;12.97;;;8.30;;
4106;SDS011;21906;50.812;7.132;2022-10-30T01:03:49;10.73;;;7.90;;
4106;SDS011;21906;50.812;7.132;2022-10-30T01:06:19;10.00;;;7.40;;
4106;SDS011;21906;50.812;7.132;2022-10-30T01:08:46;12.57;;;7.33;;
4106;SDS011;21906;50.812;7.132;2022-10-30T01:11:12;8.90;;;7.13;;
4106;SDS011;21906;50.812;7.132;2022-10-30T01:13:38;13.93;;;7.80;;
4106;SDS011;21906;50.812;7.132;2022-10-30T01:32:59;9.60;;;7.33;;
4106;SDS011;21906;50.812;7.132;2022-10-30T01:35:19;9.00;;;7.17;;
4106;SDS011;21906;50.812;7.132;2022-10-30T01:37:55;10.53;;;7.83;;
4106;SDS011;21906;50.812;7.132;2022-10-30T01:40:26;9.33;;;7.37;;
4106;SDS011;21906;50.812;7.132;2022-10-30T01:42:56;16.43;;;7.40;;
4106;SDS011;21906;50.812;7.132;2022-10-30T01:51:03;9.70;;;7.20;;
4106;SDS011;21906;50.812;7.132;2022-10-30T01:53:40;7.90;;;6.80;;
4106;SDS011;21906;50.812;7.132;2022-10-30T01:56:25;9.20;;;7.50;;
4106;SDS011;21906;50.812;7.132;2022-10-30T01:59:19;11.70;;;7.57;;
4106;SDS011;21906;50.812;7.132;2022-10-30T02:01:50;10.30;;;6.93;;
4106;SDS011;21906;50.812;7.132;2022-10-30T02:04:16;7.97;;;7.23;;
4106;SDS011;21906;50.812;7.132;2022-10-30T02:06:43;10.30;;;7.17;;
4106;SDS011;21906;50.812;7.132;2022-10-30T02:09:09;10.63;;;7.50;;
4106;SDS011;21906;50.812;7.132;2022-10-30T02:11:35;11.07;;;7.43;;
4106;SDS011;21906;50.812;7.132;2022-10-30T02:14:03;10.03;;;7.00;;
4106;SDS011;21906;50.812;7.132;2022-10-30T02:16:32;11.07;;;8.00;;
4106;SDS011;21906;50.812;7.132;2022-10-30T02:19:01;8.53;;;7.70;;
4106;SDS011;21906;50.812;7.132;2022-10-30T02:21:27;13.53;;;7.90;;
4106;SDS011;21906;50.812;7.132;2022-10-30T02:23:52;10.30;;;7.63;;
4106;SDS011;21906;50.812;7.132;2022-10-30T02:26:18;8.10;;;7.10;;
4106;SDS011;21906;50.812;7.132;2022-10-30T02:28:46;12.93;;;7.43;;
4106;SDS011;21906;50.812;7.132;2022-10-30T02:31:13;14.73;;;8.10;;
4106;SDS011;21906;50.812;7.132;2022-10-30T02:33:44;11.93;;;7.33;;
4106;SDS011;21906;50.812;7.132;2022-10-30T02:36:11;8.30;;;7.20;;
4106;SDS011;21906;50.812;7.132;2022-10-30T02:38:39;11.77;;;7.30;;
4106;SDS011;21906;50.812;7.132;2022-10-30T02:43:40;12.73;;;7.40;;
4106;SDS011;21906;50.812;7.132;2022-10-30T02:46:06;11.47;;;7.30;;
4106;SDS011;21906;50.812;7.132;2022-10-30T02:48:32;8.90;;;7.50;;
4106;SDS011;21906;50.812;7.132;2022-10-30T02:51:01;10.83;;;7.90;;
4106;SDS011;21906;50.812;7.132;2022-10-30T02:53:28;13.03;;;7.87;;
4106;SDS011;21906;50.812;7.132;2022-10-30T02:55:54;13.00;;;7.53;;
4106;SDS011;21906;50.812;7.132;2022-10-30T02:58:20;11.13;;;7.70;;
4106;SDS011;21906;50.812;7.132;2022-10-30T03:00:47;9.30;;;7.73;;
4106;SDS011;21906;50.812;7.132;2022-10-30T03:03:13;13.83;;;8.07;;
4106;SDS011;21906;50.812;7.132;2022-10-30T03:05:38;9.90;;;7.63;;
4106;SDS011;21906;50.812;7.132;2022-10-30T03:08:04;9.33;;;7.27;;
4106;SDS011;21906;50.812;7.132;2022-10-30T03:10:30;10.10;;;8.10;;
4106;SDS011;21906;50.812;7.132;2022-10-30T03:12:57;9.87;;;7.43;;
4106;SDS011;21906;50.812;7.132;2022-10-30T03:15:22;8.70;;;7.40;;
4106;SDS011;21906;50.812;7.132;2022-10-30T03:17:48;13.23;;;7.90;;
4106;SDS011;21906;50.812;7.132;2022-10-30T03:20:16;10.60;;;8.10;;
4106;SDS011;21906;50.812;7.132;2022-10-30T03:22:42;10.90;;;8.43;;
4106;SDS011;21906;50.812;7.132;2022-10-30T03:25:08;12.77;;;8.13;;
4106;SDS011;21906;50.812;7.132;2022-10-30T03:27:34;12.27;;;7.90;;
4106;SDS011;21906;50.812;7.132;2022-10-30T03:29:59;11.20;;;7.47;;
4106;SDS011;21906;50.812;7.132;2022-10-30T03:32:25;11.47;;;7.47;;
4106;SDS011;21906;50.812;7.132;2022-10-30T03:34:51;13.63;;;7.60;;
4106;SDS011;21906;50.812;7.132;2022-10-30T03:37:16;13.60;;;7.33;;
4106;SDS011;21906;50.812;7.132;2022-10-30T03:39:42;12.90;;;7.90;;
4106;SDS011;21906;50.812;7.132;2022-10-30T03:42:07;9.77;;;7.43;;
4106;SDS011;21906;50.812;7.132;2022-10-30T03:44:33;11.80;;;7.23;;
4106;SDS011;21906;50.812;7.132;2022-10-30T03:46:59;12.17;;;7.80;;
4106;SDS011;21906;50.812;7.132;2022-10-30T03:49:24;10.93;;;8.00;;
4106;SDS011;21906;50.812;7.132;2022-10-30T03:51:50;13.37;;;7.80;;
4106;SDS011;21906;50.812;7.132;2022-10-30T03:54:16;12.43;;;7.67;;
4106;SDS011;21906;50.812;7.132;2022-10-30T03:56:43;8.63;;;7.63;;
4106;SDS011;21906;50.812;7.132;2022-10-30T03:59:09;9.70;;;7.43;;
4106;SDS011;21906;50.812;7.132;2022-10-30T04:01:34;8.83;;;7.93;;
4106;SDS011;21906;50.812;7.132;2022-10-30T04:04:00;9.50;;;8.07;;
4106;SDS011;21906;50.812;7.132;2022-10-30T04:06:25;9.23;;;6.97;;
4106;SDS011;21906;50.812;7.132;2022-10-30T04:08:53;12.73;;;7.63;;
4106;SDS011;21906;50.812;7.132;2022-10-30T04:11:19;12.13;;;8.23;;
4106;SDS011;21906;50.812;7.132;2022-10-30T04:13:44;11.83;;;7.83;;
4106;SDS011;21906;50.812;7.132;2022-10-30T04:16:10;11.17;;;7.87;;
4106;SDS011;21906;50.812;7.132;2022-10-30T04:18:36;10.57;;;7.97;;
4106;SDS011;21906;50.812;7.132;2022-10-30T04:21:01;10.73;;;7.77;;
4106;SDS011;21906;50.812;7.132;2022-10-30T04:23:27;10.23;;;7.40;;
4106;SDS011;21906;50.812;7.132;2022-10-30T04:25:53;10.50;;;6.90;;
4106;SDS011;21906;50.812;7.132;2022-10-30T04:28:18;11.10;;;7.87;;
4106;SDS011;21906;50.812;7.132;2022-10-30T04:30:45;15.30;;;7.73;;
4106;SDS011;21906;50.812;7.132;2022-10-30T04:33:11;11.63;;;7.30;;
4106;SDS011;21906;50.812;7.132;2022-10-30T04:35:38;13.63;;;7.70;;
4106;SDS011;21906;50.812;7.132;2022-10-30T04:38:05;9.37;;;7.20;;
4106;SDS011;21906;50.812;7.132;2022-10-30T04:40:34;11.20;;;7.47;;
4106;SDS011;21906;50.812;7.132;2022-10-30T04:43:02;14.47;;;7.93;;
4106;SDS011;21906;50.812;7.132;2022-10-30T04:45:28;11.20;;;7.80;;
4106;SDS011;21906;50.812;7.132;2022-10-30T04:48:04;13.23;;;7.97;;
4106;SDS011;21906;50.812;7.132;2022-10-30T04:50:40;10.10;;;7.07;;
4106;SDS011;21906;50.812;7.132;2022-10-30T04:53:14;14.40;;;9.03;;
4106;SDS011;21906;50.812;7.132;2022-10-30T04:55:42;14.33;;;8.27;;
4106;SDS011;21906;50.812;7.132;2022-10-30T04:58:08;9.83;;;7.40;;
4106;SDS011;21906;50.812;7.132;2022-10-30T05:00:35;13.83;;;7.37;;
4106;SDS011;21906;50.812;7.132;2022-10-30T05:03:01;13.33;;;8.03;;
4106;SDS011;21906;50.812;7.132;2022-10-30T05:05:28;7.83;;;7.13;;
4106;SDS011;21906;50.812;7.132;2022-10-30T05:07:54;8.30;;;7.47;;
4106;SDS011;21906;50.812;7.132;2022-10-30T05:10:20;8.90;;;6.80;;
4106;SDS011;21906;50.812;7.132;2022-10-30T05:12:46;9.40;;;7.50;;
4106;SDS011;21906;50.812;7.132;2022-10-30T05:15:12;12.60;;;7.93;;
4106;SDS011;21906;50.812;7.132;2022-10-30T05:17:38;12.93;;;7.70;;
4106;SDS011;21906;50.812;7.132;2022-10-30T05:20:05;10.53;;;8.23;;
4106;SDS011;21906;50.812;7.132;2022-10-30T05:22:31;9.70;;;7.23;;
4106;SDS011;21906;50.812;7.132;2022-10-30T05:24:57;9.43;;;7.27;;
4106;SDS011;21906;50.812;7.132;2022-10-30T05:27:23;11.17;;;6.83;;
4106;SDS011;21906;50.812;7.132;2022-10-30T05:29:49;11.53;;;8.30;;
4106;SDS011;21906;50.812;7.132;2022-10-30T05:32:15;11.40;;;7.80;;
4106;SDS011;21906;50.812;7.132;2022-10-30T05:34:41;11.03;;;7.60;;
4106;SDS011;21906;50.812;7.132;2022-10-30T05:37:06;11.10;;;6.83;;
4106;SDS011;21906;50.812;7.132;2022-10-30T05:39:32;11.70;;;7.77;;
4106;SDS011;21906;50.812;7.132;2022-10-30T05:41:58;11.57;;;7.47;;
4106;SDS011;21906;50.812;7.132;2022-10-30T05:44:23;11.33;;;7.60;;
4106;SDS011;21906;50.812;7.132;2022-10-30T05:46:49;16.47;;;7.53;;
4106;SDS011;21906;50.812;7.132;2022-10-30T05:49:14;13.80;;;7.77;;
4106;SDS011;21906;50.812;7.132;2022-10-30T05:51:41;14.10;;;8.00;;
4106;SDS011;21906;50.812;7.132;2022-10-30T05:54:07;11.83;;;8.37;;
4106;SDS011;21906;50.812;7.132;2022-10-30T05:56:33;12.23;;;7.73;;
4106;SDS011;21906;50.812;7.132;2022-10-30T05:58:59;12.50;;;8.03;;
4106;SDS011;21906;50.812;7.132;2022-10-30T06:01:25;9.63;;;7.30;;
4106;SDS011;21906;50.812;7.132;2022-10-30T06:03:50;14.53;;;8.03;;
4106;SDS011;21906;50.812;7.132;2022-10-30T06:06:16;9.63;;;8.33;;
4106;SDS011;21906;50.812;7.132;2022-10-30T06:08:41;11.30;;;8.20;;
4106;SDS011;21906;50.812;7.132;2022-10-30T06:11:07;8.80;;;7.90;;
4106;SDS011;21906;50.812;7.132;2022-10-30T06:13:33;11.10;;;8.00;;
4106;SDS011;21906;50.812;7.132;2022-10-30T06:15:58;11.30;;;7.87;;
4106;SDS011;21906;50.812;7.132;2022-10-30T06:18:24;12.40;;;7.90;;
4106;SDS011;21906;50.812;7.132;2022-10-30T06:20:50;10.10;;;8.23;;
4106;SDS011;21906;50.812;7.132;2022-10-30T06:23:15;10.07;;;7.63;;
4106;SDS011;21906;50.812;7.132;2022-10-30T06:25:41;8.17;;;7.03;;
4106;SDS011;21906;50.812;7.132;2022-10-30T06:28:08;16.80;;;7.60;;
4106;SDS011;21906;50.812;7.132;2022-10-30T06:30:35;9.97;;;7.40;;
4106;SDS011;21906;50.812;7.132;2022-10-30T06:33:02;12.53;;;7.20;;
4106;SDS011;21906;50.812;7.132;2022-10-30T06:35:29;10.03;;;7.43;;
4106;SDS011;21906;50.812;7.132;2022-10-30T06:37:55;8.40;;;7.70;;
4106;SDS011;21906;50.812;7.132;2022-10-30T06:40:24;12.47;;;7.40;;
4106;SDS011;21906;50.812;7.132;2022-10-30T06:42:50;8.63;;;7.83;;
4106;SDS011;21906;50.812;7.132;2022-10-30T06:45:18;14.00;;;8.13;;
4106;SDS011;21906;50.812;7.132;2022-10-30T06:47:45;9.83;;;7.97;;
4106;SDS011;21906;50.812;7.132;2022-10-30T06:50:11;10.53;;;7.17;;
4106;SDS011;21906;50.812;7.132;2022-10-30T06:52:40;9.87;;;7.83;;
4106;SDS011;21906;50.812;7.132;2022-10-30T06:55:05;9.43;;;7.43;;
4106;SDS011;21906;50.812;7.132;2022-10-30T06:57:32;8.77;;;7.20;;
4106;SDS011;21906;50.812;7.132;2022-10-30T06:59:57;12.10;;;7.70;;
4106;SDS011;21906;50.812;7.132;2022-10-30T07:02:23;9.27;;;8.37;;
4106;SDS011;21906;50.812;7.132;2022-10-30T07:04:52;11.37;;;7.73;;
4106;SDS011;21906;50.812;7.132;2022-10-30T07:07:17;10.73;;;8.20;;
4106;SDS011;21906;50.812;7.132;2022-10-30T07:09:43;11.20;;;8.07;;
4106;SDS011;21906;50.812;7.132;2022-10-30T07:12:10;13.57;;;8.07;;
4106;SDS011;21906;50.812;7.132;2022-10-30T07:14:36;11.87;;;7.83;;
4106;SDS011;21906;50.812;7.132;2022-10-30T07:17:02;10.37;;;7.80;;
4106;SDS011;21906;50.812;7.132;2022-10-30T07:19:28;10.03;;;8.03;;
4106;SDS011;21906;50.812;7.132;2022-10-30T07:21:54;11.77;;;8.30;;
4106;SDS011;21906;50.812;7.132;2022-10-30T07:24:19;11.47;;;7.90;;
4106;SDS011;21906;50.812;7.132;2022-10-30T07:26:45;15.23;;;8.20;;
4106;SDS011;21906;50.812;7.132;2022-10-30T07:29:11;12.90;;;7.87;;
4106;SDS011;21906;50.812;7.132;2022-10-30T07:31:36;12.93;;;7.93;;
4106;SDS011;21906;50.812;7.132;2022-10-30T07:34:02;11.50;;;8.07;;
4106;SDS011;21906;50.812;7.132;2022-10-30T07:36:28;15.43;;;8.77;;
4106;SDS011;21906;50.812;7.132;2022-10-30T07:38:53;10.60;;;8.17;;
4106;SDS011;21906;50.812;7.132;2022-10-30T07:41:19;13.40;;;8.27;;
4106;SDS011;21906;50.812;7.132;2022-10-30T07:43:45;12.13;;;8.37;;
4106;SDS011;21906;50.812;7.132;2022-10-30T07:46:12;14.17;;;8.33;;
4106;SDS011;21906;50.812;7.132;2022-10-30T07:48:44;14.43;;;9.10;;
4106;SDS011;21906;50.812;7.132;2022-10-30T07:51:10;11.83;;;8.37;;
4106;SDS011;21906;50.812;7.132;2022-10-30T07:53:35;11.07;;;8.33;;
4106;SDS011;21906;50.812;7.132;2022-10-30T07:56:01;12.03;;;8.27;;
4106;SDS011;21906;50.812;7.132;2022-10-30T07:58:27;12.30;;;8.20;;
4106;SDS011;21906;50.812;7.132;2022-10-30T08:00:53;14.30;;;8.13;;
4106;SDS011;21906;50.812;7.132;2022-10-30T08:03:18;11.03;;;8.20;;
4106;SDS011;21906;50.812;7.132;2022-10-30T08:05:44;8.87;;;7.97;;
4106;SDS011;21906;50.812;7.132;2022-10-30T08:08:09;10.63;;;8.90;;
4106;SDS011;21906;50.812;7.132;2022-10-30T08:10:35;11.87;;;8.27;;
4106;SDS011;21906;50.812;7.132;2022-10-30T08:13:01;10.20;;;8.23;;
4106;SDS011;21906;50.812;7.132;2022-10-30T08:15:27;13.63;;;8.07;;
4106;SDS011;21906;50.812;7.132;2022-10-30T08:17:53;11.70;;;8.67;;
4106;SDS011;21906;50.812;7.132;2022-10-30T08:20:20;11.20;;;8.67;;
4106;SDS011;21906;50.812;7.132;2022-10-30T08:22:51;12.43;;;7.50;;
4106;SDS011;21906;50.812;7.132;2022-10-30T08:25:19;13.10;;;8.13;;
4106;SDS011;21906;50.812;7.132;2022-10-30T08:27:55;10.37;;;7.60;;
4106;SDS011;21906;50.812;7.132;2022-10-30T08:30:31;9.90;;;8.13;;
4106;SDS011;21906;50.812;7.132;2022-10-30T08:33:02;9.93;;;8.17;;
4106;SDS011;21906;50.812;7.132;2022-10-30T08:35:29;11.60;;;8.40;;
4106;SDS011;21906;50.812;7.132;2022-10-30T08:37:56;11.87;;;8.17;;
4106;SDS011;21906;50.812;7.132;2022-10-30T08:40:23;9.57;;;7.57;;
4106;SDS011;21906;50.812;7.132;2022-10-30T08:42:54;12.27;;;7.80;;
4106;SDS011;21906;50.812;7.132;2022-10-30T08:45:21;12.30;;;8.60;;
4106;SDS011;21906;50.812;7.132;2022-10-30T08:47:48;12.87;;;7.23;;
4106;SDS011;21906;50.812;7.132;2022-10-30T08:50:24;12.83;;;7.50;;
4106;SDS011;21906;50.812;7.132;2022-10-30T08:52:50;10.77;;;7.70;;
4106;SDS011;21906;50.812;7.132;2022-10-30T08:55:15;11.53;;;7.30;;
4106;SDS011;21906;50.812;7.132;2022-10-30T08:57:41;10.60;;;7.50;;
4106;SDS011;21906;50.812;7.132;2022-10-30T09:00:07;8.23;;;6.97;;
4106;SDS011;21906;50.812;7.132;2022-10-30T09:02:34;11.50;;;8.00;;
4106;SDS011;21906;50.812;7.132;2022-10-30T09:05:03;12.50;;;7.83;;
4106;SDS011;21906;50.812;7.132;2022-10-30T09:07:30;10.77;;;7.90;;
4106;SDS011;21906;50.812;7.132;2022-10-30T09:09:56;12.13;;;7.50;;
4106;SDS011;21906;50.812;7.132;2022-10-30T09:12:21;10.00;;;7.60;;
4106;SDS011;21906;50.812;7.132;2022-10-30T09:14:47;9.10;;;7.43;;
4106;SDS011;21906;50.812;7.132;2022-10-30T09:17:13;10.57;;;7.50;;
4106;SDS011;21906;50.812;7.132;2022-10-30T09:19:38;9.20;;;7.03;;
4106;SDS011;21906;50.812;7.132;2022-10-30T09:22:04;10.73;;;7.77;;
4106;SDS011;21906;50.812;7.132;2022-10-30T09:24:30;9.63;;;7.40;;
4106;SDS011;21906;50.812;7.132;2022-10-30T09:26:55;9.70;;;7.23;;
4106;SDS011;21906;50.812;7.132;2022-10-30T09:29:21;10.50;;;7.33;;
4106;SDS011;21906;50.812;7.132;2022-10-30T09:31:47;8.70;;;7.33;;
4106;SDS011;21906;50.812;7.132;2022-10-30T09:34:12;14.97;;;7.40;;
4106;SDS011;21906;50.812;7.132;2022-10-30T09:36:38;8.40;;;6.90;;
4106;SDS011;21906;50.812;7.132;2022-10-30T09:39:04;10.70;;;7.10;;
4106;SDS011;21906;50.812;7.132;2022-10-30T10:01:21;8.63;;;6.70;;
4106;SDS011;21906;50.812;7.132;2022-10-30T10:06:26;15.60;;;7.20;;
4106;SDS011;21906;50.812;7.132;2022-10-30T10:09:00;9.97;;;6.50;;
4106;SDS011;21906;50.812;7.132;2022-10-30T10:11:35;8.37;;;6.70;;
4106;SDS011;21906;50.812;7.132;2022-10-30T10:14:07;14.50;;;7.30;;
4106;SDS011;21906;50.812;7.132;2022-10-30T10:16:35;10.10;;;6.90;;
4106;SDS011;21906;50.812;7.132;2022-10-30T10:19:20;9.13;;;6.73;;
4106;SDS011;21906;50.812;7.132;2022-10-30T10:24:27;9.80;;;6.67;;
4106;SDS011;21906;50.812;7.132;2022-10-30T10:34:35;7.70;;;6.97;;
4106;SDS011;21906;50.812;7.132;2022-10-30T10:37:10;7.53;;;6.73;;
4106;SDS011;21906;50.812;7.132;2022-10-30T10:51:53;10.70;;;7.10;;
4106;SDS011;21906;50.812;7.132;2022-10-30T10:56:56;8.57;;;6.63;;
4106;SDS011;21906;50.812;7.132;2022-10-30T10:59:43;8.73;;;6.33;;
4106;SDS011;21906;50.812;7.132;2022-10-30T11:02:37;9.40;;;6.63;;
4106;SDS011;21906;50.812;7.132;2022-10-30T11:07:57;14.90;;;7.03;;
4106;SDS011;21906;50.812;7.132;2022-10-30T11:10:27;9.30;;;5.87;;
4106;SDS011;21906;50.812;7.132;2022-10-30T11:12:54;10.73;;;6.37;;
4106;SDS011;21906;50.812;7.132;2022-10-30T11:18:06;10.33;;;6.27;;
4106;SDS011;21906;50.812;7.132;2022-10-30T11:23:31;9.90;;;6.17;;
4106;SDS011;21906;50.812;7.132;2022-10-30T11:26:49;10.70;;;6.57;;
4106;SDS011;21906;50.812;7.132;2022-10-30T11:33:48;6.20;;;5.60;;
4106;SDS011;21906;50.812;7.132;2022-10-30T11:36:15;7.17;;;5.30;;
4106;SDS011;21906;50.812;7.132;2022-10-30T11:38:43;6.83;;;6.13;;
4106;SDS011;21906;50.812;7.132;2022-10-30T11:41:09;8.97;;;5.40;;
4106;SDS011;21906;50.812;7.132;2022-10-30T11:43:35;6.00;;;5.40;;
4106;SDS011;21906;50.812;7.132;2022-10-30T11:46:04;6.90;;;6.00;;
4106;SDS011;21906;50.812;7.132;2022-10-30T11:48:36;7.67;;;5.57;;
4106;SDS011;21906;50.812;7.132;2022-10-30T11:51:04;8.50;;;5.50;;
4106;SDS011;21906;50.812;7.132;2022-10-30T11:53:34;8.57;;;5.20;;
4106;SDS011;21906;50.812;7.132;2022-10-30T11:56:10;9.13;;;5.70;;
4106;SDS011;21906;50.812;7.132;2022-10-30T11:58:43;5.93;;;5.33;;
4106;SDS011;21906;50.812;7.132;2022-10-30T12:01:21;11.63;;;5.30;;
4106;SDS011;21906;50.812;7.132;2022-10-30T12:03:48;7.07;;;5.17;;
4106;SDS011;21906;50.812;7.132;2022-10-30T12:11:24;5.50;;;5.00;;
4106;SDS011;21906;50.812;7.132;2022-10-30T12:13:53;7.20;;;5.40;;
4106;SDS011;21906;50.812;7.132;2022-10-30T12:16:19;6.47;;;5.80;;
4106;SDS011;21906;50.812;7.132;2022-10-30T12:19:19;10.63;;;5.53;;
4106;SDS011;21906;50.812;7.132;2022-10-30T12:21:46;6.20;;;5.60;;
4106;SDS011;21906;50.812;7.132;2022-10-30T12:24:22;6.53;;;4.87;;
4106;SDS011;21906;50.812;7.132;2022-10-30T12:26:55;10.90;;;5.17;;
4106;SDS011;21906;50.812;7.132;2022-10-30T12:29:26;7.60;;;5.30;;
4106;SDS011;21906;50.812;7.132;2022-10-30T12:32:05;6.50;;;4.80;;
4106;SDS011;21906;50.812;7.132;2022-10-30T12:34:39;6.57;;;5.53;;
4106;SDS011;21906;50.812;7.132;2022-10-30T12:37:19;8.00;;;5.03;;
4106;SDS011;21906;50.812;7.132;2022-10-30T12:40:02;11.57;;;5.50;;
4106;SDS011;21906;50.812;7.132;2022-10-30T12:42:40;10.57;;;5.10;;
4106;SDS011;21906;50.812;7.132;2022-10-30T12:45:31;7.40;;;5.07;;
4106;SDS011;21906;50.812;7.132;2022-10-30T12:48:11;7.23;;;5.23;;
4106;SDS011;21906;50.812;7.132;2022-10-30T12:53:49;8.13;;;5.10;;
4106;SDS011;21906;50.812;7.132;2022-10-30T12:56:29;10.20;;;5.53;;
4106;SDS011;21906;50.812;7.132;2022-10-30T13:01:56;7.67;;;4.87;;
4106;SDS011;21906;50.812;7.132;2022-10-30T13:04:31;7.43;;;4.60;;
4106;SDS011;21906;50.812;7.132;2022-10-30T13:07:05;6.43;;;4.70;;
4106;SDS011;21906;50.812;7.132;2022-10-30T13:09:39;7.00;;;4.80;;
4106;SDS011;21906;50.812;7.132;2022-10-30T13:12:15;7.73;;;5.20;;
4106;SDS011;21906;50.812;7.132;2022-10-30T13:14:59;6.30;;;4.57;;
4106;SDS011;21906;50.812;7.132;2022-10-30T13:17:28;6.93;;;4.87;;
4106;SDS011;21906;50.812;7.132;2022-10-30T13:19:54;5.93;;;4.60;;
4106;SDS011;21906;50.812;7.132;2022-10-30T13:22:30;5.67;;;4.87;;
4106;SDS011;21906;50.812;7.132;2022-10-30T13:27:44;8.97;;;5.43;;
4106;SDS011;21906;50.812;7.132;2022-10-30T13:38:05;6.30;;;4.23;;
4106;SDS011;21906;50.812;7.132;2022-10-30T13:53:45;5.57;;;5.00;;
4106;SDS011;21906;50.812;7.132;2022-10-30T13:56:15;8.23;;;4.50;;
4106;SDS011;21906;50.812;7.132;2022-10-30T13:58:44;9.70;;;5.30;;
4106;SDS011;21906;50.812;7.132;2022-10-30T14:01:36;5.10;;;4.20;;
4106;SDS011;21906;50.812;7.132;2022-10-30T14:07:13;4.77;;;4.40;;
4106;SDS011;21906;50.812;7.132;2022-10-30T14:20:35;6.10;;;4.90;;
4106;SDS011;21906;50.812;7.132;2022-10-30T14:23:26;9.97;;;5.60;;
4106;SDS011;21906;50.812;7.132;2022-10-30T14:31:01;8.93;;;5.50;;
4106;SDS011;21906;50.812;7.132;2022-10-30T14:38:52;6.83;;;6.13;;
4106;SDS011;21906;50.812;7.132;2022-10-30T14:41:30;10.33;;;6.50;;
4106;SDS011;21906;50.812;7.132;2022-10-30T14:49:34;8.43;;;5.50;;
4106;SDS011;21906;50.812;7.132;2022-10-30T14:52:15;7.50;;;6.00;;
4106;SDS011;21906;50.812;7.132;2022-10-30T15:00:27;5.80;;;5.37;;
4106;SDS011;21906;50.812;7.132;2022-10-30T15:03:04;7.70;;;5.27;;
4106;SDS011;21906;50.812;7.132;2022-10-30T15:14:51;5.83;;;4.93;;
4106;SDS011;21906;50.812;7.132;2022-10-30T15:17:00;5.70;;;5.30;;
4106;SDS011;21906;50.812;7.132;2022-10-30T15:19:26;9.57;;;5.63;;
4106;SDS011;21906;50.812;7.132;2022-10-30T15:21:53;7.73;;;5.33;;
4106;SDS011;21906;50.812;7.132;2022-10-30T15:24:21;8.13;;;5.60;;
4106;SDS011;21906;50.812;7.132;2022-10-30T15:26:50;7.20;;;5.57;;
4106;SDS011;21906;50.812;7.132;2022-10-30T15:29:20;8.00;;;6.30;;
4106;SDS011;21906;50.812;7.132;2022-10-30T15:31:59;6.10;;;5.63;;
4106;SDS011;21906;50.812;7.132;2022-10-30T15:34:27;8.60;;;5.43;;
4106;SDS011;21906;50.812;7.132;2022-10-30T15:36:54;6.50;;;5.10;;
4106;SDS011;21906;50.812;7.132;2022-10-30T15:39:20;8.80;;;5.50;;
4106;SDS011;21906;50.812;7.132;2022-10-30T15:41:53;8.43;;;5.93;;
4106;SDS011;21906;50.812;7.132;2022-10-30T15:44:22;6.00;;;5.40;;
4106;SDS011;21906;50.812;7.132;2022-10-30T15:46:50;9.00;;;5.10;;
4106;SDS011;21906;50.812;7.132;2022-10-30T15:49:20;5.93;;;5.17;;
4106;SDS011;21906;50.812;7.132;2022-10-30T15:52:03;5.47;;;4.97;;
4106;SDS011;21906;50.812;7.132;2022-10-30T15:54:38;5.77;;;5.20;;
4106;SDS011;21906;50.812;7.132;2022-10-30T15:57:10;6.60;;;5.50;;
4106;SDS011;21906;50.812;7.132;2022-10-30T16:00:06;8.97;;;5.70;;
4106;SDS011;21906;50.812;7.132;2022-10-30T16:02:46;7.60;;;5.67;;
4106;SDS011;21906;50.812;7.132;2022-10-30T16:05:22;6.50;;;5.90;;
4106;SDS011;21906;50.812;7.132;2022-10-30T16:07:49;6.80;;;4.90;;
4106;SDS011;21906;50.812;7.132;2022-10-30T16:10:18;9.73;;;5.33;;
4106;SDS011;21906;50.812;7.132;2022-10-30T16:12:44;6.70;;;5.17;;
4106;SDS011;21906;50.812;7.132;2022-10-30T16:18:12;6.07;;;5.40;;
4106;SDS011;21906;50.812;7.132;2022-10-30T16:20:47;7.30;;;5.50;;
4106;SDS011;21906;50.812;7.132;2022-10-30T16:23:18;8.53;;;5.10;;
4106;SDS011;21906;50.812;7.132;2022-10-30T16:25:45;5.83;;;5.30;;
4106;SDS011;21906;50.812;7.132;2022-10-30T16:30:54;8.40;;;6.80;;
4106;SDS011;21906;50.812;7.132;2022-10-30T16:33:23;7.57;;;6.83;;
4106;SDS011;21906;50.812;7.132;2022-10-30T16:35:51;7.27;;;5.70;;
4106;SDS011;21906;50.812;7.132;2022-10-30T16:38:18;6.97;;;5.50;;
4106;SDS011;21906;50.812;7.132;2022-10-30T16:40:45;7.33;;;5.60;;
4106;SDS011;21906;50.812;7.132;2022-10-30T16:43:24;8.27;;;5.77;;
4106;SDS011;21906;50.812;7.132;2022-10-30T16:45:55;8.47;;;6.40;;
4106;SDS011;21906;50.812;7.132;2022-10-30T16:48:38;7.87;;;5.77;;
4106;SDS011;21906;50.812;7.132;2022-10-30T16:51:17;8.60;;;6.40;;
4106;SDS011;21906;50.812;7.132;2022-10-30T16:53:49;7.17;;;6.40;;
4106;SDS011;21906;50.812;7.132;2022-10-30T16:56:23;10.07;;;6.60;;
4106;SDS011;21906;50.812;7.132;2022-10-30T16:58:54;7.87;;;6.20;;
4106;SDS011;21906;50.812;7.132;2022-10-30T17:01:28;9.03;;;5.93;;
4106;SDS011;21906;50.812;7.132;2022-10-30T17:03:54;6.20;;;5.30;;
4106;SDS011;21906;50.812;7.132;2022-10-30T17:06:25;9.00;;;5.80;;
4106;SDS011;21906;50.812;7.132;2022-10-30T17:08:58;9.53;;;6.07;;
4106;SDS011;21906;50.812;7.132;2022-10-30T17:11:34;6.50;;;5.80;;
4106;SDS011;21906;50.812;7.132;2022-10-30T17:14:14;10.07;;;5.80;;
4106;SDS011;21906;50.812;7.132;2022-10-30T17:21:55;6.33;;;5.70;;
4106;SDS011;21906;50.812;7.132;2022-10-30T17:24:24;7.33;;;4.83;;
4106;SDS011;21906;50.812;7.132;2022-10-30T17:26:59;5.70;;;5.20;;
4106;SDS011;21906;50.812;7.132;2022-10-30T17:32:04;9.60;;;5.87;;
4106;SDS011;21906;50.812;7.132;2022-10-30T17:34:57;5.87;;;5.13;;
4106;SDS011;21906;50.812;7.132;2022-10-30T17:37:26;6.87;;;5.60;;
4106;SDS011;21906;50.812;7.132;2022-10-30T17:39:52;5.50;;;4.97;;
4106;SDS011;21906;50.812;7.132;2022-10-30T17:42:18;5.57;;;5.03;;
4106;SDS011;21906;50.812;7.132;2022-10-30T17:44:44;8.27;;;6.10;;
4106;SDS011;21906;50.812;7.132;2022-10-30T17:47:14;6.57;;;5.97;;
4106;SDS011;21906;50.812;7.132;2022-10-30T17:49:41;7.70;;;6.80;;
4106;SDS011;21906;50.812;7.132;2022-10-30T17:52:09;8.03;;;6.90;;
4106;SDS011;21906;50.812;7.132;2022-10-30T17:54:40;10.60;;;7.13;;
4106;SDS011;21906;50.812;7.132;2022-10-30T17:57:08;9.77;;;6.83;;
4106;SDS011;21906;50.812;7.132;2022-10-30T17:59:37;7.33;;;6.63;;
4106;SDS011;21906;50.812;7.132;2022-10-30T18:02:13;8.10;;;7.30;;
4106;SDS011;21906;50.812;7.132;2022-10-30T18:04:41;8.77;;;7.10;;
4106;SDS011;21906;50.812;7.132;2022-10-30T18:07:08;8.77;;;7.43;;
4106;SDS011;21906;50.812;7.132;2022-10-30T18:09:34;10.77;;;6.73;;